createdAt,value
2019-04-01T00:06:15.443Z,23.97
2019-04-01T00:09:08.047Z,26.37
2019-04-01T00:11:57.164Z,28.00
2019-04-01T00:17:59.407Z,27.93
2019-04-01T00:20:48.769Z,26.50
2019-04-01T00:23:38.001Z,24.10
2019-04-01T00:26:27.047Z,25.60
2019-04-01T00:29:16.068Z,22.47
2019-04-01T00:31:58.151Z,23.43
2019-04-01T00:34:39.741Z,21.97
2019-04-01T00:37:30.404Z,22.03
2019-04-01T00:40:00.543Z,20.63
2019-04-01T00:46:12.547Z,25.60
2019-04-01T00:48:42.570Z,29.93
2019-04-01T00:51:33.704Z,28.03
2019-04-01T00:57:30.759Z,35.17
2019-04-01T01:00:20.239Z,33.97
2019-04-01T01:03:09.863Z,36.60
2019-04-01T01:05:58.873Z,37.23
2019-04-01T01:11:05.741Z,39.70
2019-04-01T01:13:47.883Z,41.73
2019-04-01T01:16:29.698Z,38.57
2019-04-01T01:19:11.807Z,43.00
2019-04-01T01:24:55.747Z,38.00
2019-04-01T01:27:37.765Z,39.03
2019-04-01T01:30:19.534Z,33.90
2019-04-01T01:33:02.053Z,40.00
2019-04-01T01:35:44.094Z,35.13
2019-04-01T01:38:26.180Z,34.27
2019-04-01T01:41:08.291Z,34.27
2019-04-01T01:43:49.563Z,35.80
2019-04-01T01:46:31.829Z,35.87
2019-04-01T01:49:13.981Z,35.07
2019-04-01T01:51:56.031Z,49.63
2019-04-01T01:54:40.759Z,32.77
2019-04-01T01:57:22.602Z,37.77
2019-04-01T02:00:04.411Z,37.07
2019-04-01T02:02:46.171Z,36.30
2019-04-01T02:05:28.038Z,36.67
2019-04-01T02:08:10.106Z,37.23
2019-04-01T02:10:51.359Z,37.23
2019-04-01T02:13:35.895Z,36.47
2019-04-01T02:16:17.963Z,34.53
2019-04-01T02:18:47.831Z,39.40
2019-04-01T02:21:18.159Z,39.90
2019-04-01T02:23:47.862Z,37.83
2019-04-01T02:26:20.202Z,41.60
2019-04-01T02:28:50.163Z,41.83
2019-04-01T02:31:20.225Z,43.67
2019-04-01T02:34:09.531Z,44.47
2019-04-01T02:36:58.963Z,43.23
2019-04-01T02:39:47.976Z,40.90
2019-04-01T02:42:18.154Z,40.87
2019-04-01T02:45:07.148Z,43.10
2019-04-01T02:48:15.459Z,39.03
2019-04-01T02:54:31.746Z,40.90
2019-04-01T02:57:28.535Z,37.87
2019-04-01T03:00:01.350Z,38.73
2019-04-01T03:02:30.139Z,39.40
2019-04-01T03:05:00.467Z,41.87
2019-04-01T03:07:49.472Z,42.40
2019-04-01T03:10:38.499Z,39.80
2019-04-01T03:13:27.641Z,45.13
2019-04-01T03:16:09.564Z,44.20
2019-04-01T03:18:51.407Z,45.67
2019-04-01T03:21:33.267Z,42.33
2019-04-01T03:24:05.938Z,40.47
2019-04-01T03:26:55.311Z,41.60
2019-04-01T03:30:03.671Z,43.03
2019-04-01T03:32:52.934Z,43.13
2019-04-01T03:35:23.249Z,44.03
2019-04-01T03:37:53.265Z,41.07
2019-04-01T03:40:35.702Z,42.50
2019-04-01T03:43:32.923Z,43.40
2019-04-01T03:46:02.683Z,42.27
2019-04-01T03:51:40.888Z,44.20
2019-04-01T03:54:30.041Z,43.70
2019-04-01T03:57:19.147Z,48.43
2019-04-01T04:03:03.365Z,48.57
2019-04-01T04:05:52.426Z,49.43
2019-04-01T04:08:22.207Z,47.57
2019-04-01T04:10:52.153Z,52.00
2019-04-01T04:16:07.037Z,49.90
2019-04-01T04:18:49.464Z,49.10
2019-04-01T04:21:31.259Z,51.80
2019-04-01T04:24:12.980Z,47.10
2019-04-01T04:26:54.579Z,51.50
2019-04-01T04:29:36.701Z,52.87
2019-04-01T04:32:18.415Z,53.40
2019-04-01T04:35:00.513Z,57.03
2019-04-01T04:37:43.386Z,54.63
2019-04-01T04:40:25.432Z,52.93
2019-04-01T04:43:07.232Z,62.37
2019-04-01T04:51:47.462Z,48.50
2019-04-01T04:54:29.442Z,51.80
2019-04-01T04:57:11.532Z,48.00
2019-04-01T04:59:52.932Z,51.77
2019-04-01T05:02:24.584Z,50.23
2019-04-01T05:05:24.914Z,50.13
2019-04-01T05:08:07.252Z,51.07
2019-04-01T05:10:48.484Z,52.93
2019-04-01T05:13:30.582Z,49.10
2019-04-01T05:16:12.755Z,51.43
2019-04-01T05:18:55.101Z,49.97
2019-04-01T05:21:36.974Z,48.53
2019-04-01T05:24:07.058Z,54.27
2019-04-01T05:27:16.622Z,53.03
2019-04-01T05:30:05.994Z,56.23
2019-04-01T05:32:55.442Z,58.93
2019-04-01T05:35:44.364Z,55.03
2019-04-01T05:38:33.923Z,53.27
2019-04-01T05:41:04.355Z,55.77
2019-04-01T05:43:53.367Z,52.73
2019-04-01T05:46:42.387Z,60.83
2019-04-01T05:49:31.656Z,54.53
2019-04-01T05:52:20.918Z,55.10
2019-04-01T05:55:10.131Z,55.90
2019-04-01T05:57:59.151Z,50.67
2019-04-01T06:01:07.619Z,58.70
2019-04-01T06:03:56.602Z,58.83
2019-04-01T06:06:38.265Z,55.67
2019-04-01T06:09:20.330Z,52.30
2019-04-01T06:12:02.034Z,56.93
2019-04-01T06:14:43.796Z,55.47
2019-04-01T06:17:25.624Z,56.77
2019-04-01T06:20:07.105Z,56.40
2019-04-01T06:41:16.491Z,61.63
2019-04-01T06:47:19.758Z,66.03
2019-04-01T06:50:08.766Z,60.77
2019-04-01T06:52:57.786Z,58.43
2019-04-01T06:55:46.945Z,55.37
2019-04-01T06:58:36.443Z,63.37
2019-04-01T07:01:25.357Z,67.20
2019-04-01T07:04:14.610Z,54.40
2019-04-01T07:06:56.226Z,60.20
2019-04-01T07:09:38.235Z,60.33
2019-04-01T07:12:19.515Z,62.03
2019-04-01T07:15:01.557Z,63.20
2019-04-01T07:17:43.566Z,59.87
2019-04-01T07:20:25.887Z,60.63
2019-04-01T07:23:07.791Z,61.17
2019-04-01T07:25:49.441Z,63.20
2019-04-01T07:28:31.876Z,63.00
2019-04-01T07:31:13.990Z,58.57
2019-04-01T07:33:55.803Z,60.73
2019-04-01T07:36:38.000Z,60.80
2019-04-01T07:39:19.654Z,61.50
2019-04-01T07:42:01.964Z,59.17
2019-04-01T07:44:43.701Z,59.23
2019-04-01T07:47:26.028Z,56.93
2019-04-01T07:50:07.958Z,61.67
2019-04-01T07:52:49.512Z,59.50
2019-04-01T07:55:31.530Z,51.40
2019-04-01T07:58:13.862Z,58.67
2019-04-01T08:00:55.716Z,51.27
2019-04-01T08:03:37.539Z,54.20
2019-04-01T08:06:19.012Z,53.17
2019-04-01T08:09:00.313Z,58.03
2019-04-01T08:11:42.810Z,54.63
2019-04-01T08:14:24.675Z,55.43
2019-04-01T08:17:07.100Z,54.70
2019-04-01T08:19:48.451Z,52.63
2019-04-01T08:22:29.696Z,51.70
2019-04-01T08:24:59.626Z,54.23
2019-04-01T08:27:48.923Z,53.73
2019-04-01T08:30:37.903Z,54.07
2019-04-01T08:33:26.846Z,52.90
2019-04-01T08:36:15.828Z,50.97
2019-04-01T08:42:40.106Z,49.40
2019-04-01T08:45:29.042Z,50.60
2019-04-01T08:48:18.107Z,53.50
2019-04-01T08:54:15.383Z,52.67
2019-04-01T08:56:57.340Z,52.70
2019-04-01T08:59:38.584Z,51.60
2019-04-01T09:02:19.830Z,55.93
2019-04-01T09:05:01.623Z,66.53
2019-04-01T09:07:43.646Z,46.87
2019-04-01T09:10:26.039Z,49.73
2019-04-01T09:13:07.367Z,49.07
2019-04-01T09:15:49.564Z,51.33
2019-04-01T09:18:31.464Z,44.30
2019-04-01T09:21:13.611Z,55.17
2019-04-01T09:23:55.712Z,43.37
2019-04-01T09:26:36.907Z,43.87
2019-04-01T09:29:18.839Z,46.53
2019-04-01T09:32:00.463Z,44.80
2019-04-01T09:34:43.084Z,42.50
2019-04-01T09:37:24.885Z,41.60
2019-04-01T09:40:07.033Z,41.53
2019-04-01T09:42:48.816Z,43.30
2019-04-01T09:45:30.768Z,45.13
2019-04-01T09:48:12.683Z,38.93
2019-04-01T09:50:54.752Z,41.93
2019-04-01T09:53:36.166Z,42.63
2019-04-01T09:56:18.282Z,40.10
2019-04-01T09:59:00.349Z,34.17
2019-04-01T10:01:42.471Z,60.23
2019-04-01T10:04:24.432Z,40.10
2019-04-01T10:06:54.492Z,37.47
2019-04-01T10:09:43.507Z,38.90
2019-04-01T10:15:40.431Z,33.53
2019-04-01T10:18:29.595Z,36.20
2019-04-01T10:21:18.851Z,30.83
2019-04-01T10:24:08.182Z,34.97
2019-04-01T10:26:57.098Z,30.90
2019-04-01T10:29:46.273Z,33.57
2019-04-01T10:32:16.485Z,29.73
2019-04-01T10:35:05.867Z,30.63
2019-04-01T10:37:35.964Z,31.17
2019-04-01T10:43:39.113Z,29.67
2019-04-01T10:46:28.387Z,29.30
2019-04-01T10:49:17.319Z,30.50
2019-04-01T10:52:06.673Z,28.13
2019-04-01T10:54:55.651Z,27.90
2019-04-01T10:57:25.509Z,29.57
2019-04-01T10:59:55.678Z,26.17
2019-04-01T11:02:44.669Z,30.97
2019-04-01T11:12:00.349Z,25.63
2019-04-01T11:14:49.605Z,26.97
2019-04-01T11:17:38.613Z,25.53
2019-04-01T11:20:27.802Z,26.37
2019-04-01T11:23:17.053Z,26.17
2019-04-01T11:29:19.927Z,25.40
2019-04-01T11:32:12.948Z,27.17
2019-04-01T11:35:18.993Z,26.27
2019-04-01T11:37:48.782Z,26.70
2019-04-01T11:40:38.936Z,25.43
2019-04-01T11:43:47.764Z,26.47
2019-04-01T11:46:37.046Z,28.30
2019-04-01T11:49:26.240Z,26.50
2019-04-01T11:52:15.714Z,26.57
2019-04-01T11:55:25.357Z,26.50
2019-04-01T11:58:07.037Z,25.40
2019-04-01T12:00:48.555Z,27.60
2019-04-01T12:07:02.755Z,24.93
2019-04-01T12:09:44.848Z,26.00
2019-04-01T12:12:26.719Z,27.63
2019-04-01T12:15:11.724Z,25.47
2019-04-01T12:17:51.919Z,23.93
2019-04-01T12:20:33.138Z,25.30
2019-04-01T12:23:14.521Z,22.93
2019-04-01T12:25:57.058Z,22.77
2019-04-01T12:28:38.599Z,29.50
2019-04-01T12:34:20.115Z,22.63
2019-04-01T12:37:01.510Z,22.17
2019-04-01T12:39:43.706Z,23.37
2019-04-01T12:42:25.331Z,21.77
2019-04-01T12:45:07.566Z,22.27
2019-04-01T12:47:49.714Z,21.83
2019-04-01T12:50:31.873Z,20.97
2019-04-01T12:53:14.143Z,21.23
2019-04-01T12:55:56.082Z,20.07
2019-04-01T12:58:38.207Z,17.30
2019-04-01T13:01:20.520Z,18.13
2019-04-01T13:04:04.276Z,15.27
2019-04-01T13:06:45.838Z,18.63
2019-04-01T13:09:27.755Z,15.33
2019-04-01T13:12:09.127Z,14.33
2019-04-01T13:14:50.752Z,14.03
2019-04-01T13:17:32.947Z,14.00
2019-04-01T13:20:14.647Z,18.47
2019-04-01T13:22:56.743Z,15.63
2019-04-01T13:25:38.823Z,15.77
2019-04-01T13:28:20.412Z,14.93
2019-04-01T13:31:02.806Z,16.40
2019-04-01T13:33:47.686Z,15.00
2019-04-01T13:36:28.983Z,17.77
2019-04-01T13:39:10.310Z,17.33
2019-04-01T13:41:42.603Z,15.87
2019-04-01T13:47:58.414Z,18.90
2019-04-01T13:50:28.625Z,20.17
2019-04-01T13:52:58.858Z,16.93
2019-04-01T13:55:47.889Z,17.07
2019-04-01T13:58:29.675Z,17.90
2019-04-01T14:01:11.798Z,17.63
2019-04-01T14:03:53.907Z,18.23
2019-04-01T14:06:35.999Z,19.93
2019-04-01T14:09:17.311Z,20.73
2019-04-01T14:11:59.703Z,17.93
2019-04-01T14:14:41.584Z,19.20
2019-04-01T14:17:23.623Z,19.07
2019-04-01T14:20:05.970Z,20.10
2019-04-01T14:22:48.308Z,22.17
2019-04-01T14:25:34.575Z,20.83
2019-04-01T14:28:14.182Z,19.93
2019-04-01T14:30:56.224Z,21.13
2019-04-01T14:33:38.472Z,24.50
2019-04-01T14:36:20.895Z,22.30
2019-04-01T14:39:02.975Z,22.13
2019-04-01T14:41:47.495Z,22.00
2019-04-01T14:44:28.666Z,21.97
2019-04-01T14:47:10.559Z,21.00
2019-04-01T14:49:52.633Z,23.83
2019-04-01T14:52:36.408Z,22.97
2019-04-01T14:55:18.161Z,24.00
2019-04-01T14:58:00.448Z,21.07
2019-04-01T15:00:42.210Z,19.10
2019-04-01T15:03:24.158Z,20.37
2019-04-01T15:06:05.310Z,20.47
2019-04-01T15:08:48.178Z,19.43
2019-04-01T15:11:20.578Z,20.07
2019-04-01T15:17:23.558Z,20.23
2019-04-01T15:20:12.478Z,20.53
2019-04-01T15:26:15.167Z,24.10
2019-04-01T15:32:18.911Z,22.20
2019-04-01T15:35:08.025Z,23.40
2019-04-01T15:37:56.973Z,21.13
2019-04-01T15:40:47.079Z,23.03
2019-04-01T15:43:55.942Z,21.87
2019-04-01T15:46:44.850Z,21.27
2019-04-01T15:49:33.858Z,19.67
2019-04-01T15:52:35.743Z,19.93
2019-04-01T15:55:53.161Z,20.60
2019-04-01T15:58:34.515Z,20.17
2019-04-01T16:01:16.871Z,22.43
2019-04-01T16:03:47.350Z,22.30
2019-04-01T16:06:36.715Z,22.53
2019-04-01T16:09:26.247Z,21.23
2019-04-01T16:12:16.172Z,21.37
2019-04-01T16:18:33.659Z,23.60
2019-04-01T16:21:24.065Z,22.73
2019-04-01T16:24:14.193Z,22.67
2019-04-01T16:27:06.192Z,21.90
2019-04-01T16:29:56.927Z,22.83
2019-04-01T16:32:46.310Z,22.40
2019-04-01T16:35:35.951Z,22.97
2019-04-01T16:38:25.350Z,23.57
2019-04-01T16:41:14.511Z,24.93
2019-04-01T16:44:05.375Z,22.47
2019-04-01T16:46:54.628Z,25.53
2019-04-01T16:49:43.615Z,22.03
2019-04-01T16:52:25.736Z,25.23
2019-04-01T16:55:07.715Z,27.80
2019-04-01T16:57:49.879Z,27.47
2019-04-01T17:00:32.022Z,25.67
2019-04-01T17:03:13.784Z,25.20
2019-04-01T17:05:56.070Z,32.00
2019-04-01T17:08:39.173Z,24.73
2019-04-01T17:11:21.140Z,26.20
2019-04-01T17:14:03.014Z,25.37
2019-04-01T17:16:44.975Z,24.47
2019-04-01T17:19:27.824Z,29.73
2019-04-01T17:22:11.454Z,25.63
2019-04-01T17:24:41.330Z,31.70
2019-04-01T17:27:14.847Z,32.27
2019-04-01T17:29:46.434Z,27.53
2019-04-01T17:32:35.437Z,25.47
2019-04-01T17:35:24.689Z,25.87
2019-04-01T17:38:13.975Z,24.80
2019-04-01T17:41:23.754Z,26.30
2019-04-01T17:44:14.020Z,30.77
2019-04-01T17:47:23.122Z,28.17
2019-04-01T17:50:12.878Z,29.03
2019-04-01T17:52:54.883Z,27.80
2019-04-01T17:55:37.234Z,26.70
2019-04-01T17:58:08.135Z,27.57
2019-04-01T18:04:27.639Z,29.93
2019-04-01T18:07:16.891Z,31.60
2019-04-01T18:10:06.035Z,41.33
2019-04-01T18:12:54.979Z,38.60
2019-04-01T18:15:44.272Z,38.80
2019-04-01T18:18:53.810Z,42.87
2019-04-01T18:24:51.169Z,37.67
2019-04-01T18:31:13.969Z,46.37
2019-04-01T18:37:16.830Z,34.17
2019-04-01T18:39:48.330Z,38.30
2019-04-01T18:42:57.111Z,39.07
2019-04-01T18:45:27.114Z,40.67
2019-04-01T18:48:16.292Z,39.27
2019-04-01T18:51:08.639Z,31.60
2019-04-01T18:53:57.887Z,34.80
2019-04-01T18:56:47.738Z,30.40
2019-04-01T18:59:57.671Z,29.27
2019-04-01T19:03:05.747Z,29.43
2019-04-01T19:08:49.998Z,30.97
2019-04-01T19:11:39.670Z,29.10
2019-04-01T19:14:29.160Z,30.33
2019-04-01T19:17:18.075Z,31.10
2019-04-01T19:33:06.466Z,30.77
2019-04-01T19:36:13.784Z,30.13
2019-04-01T19:42:02.222Z,30.00
2019-04-01T19:44:51.890Z,31.43
2019-04-01T19:47:22.172Z,34.70
2019-04-01T19:50:11.358Z,32.87
2019-04-01T19:52:55.303Z,30.53
2019-04-01T19:55:37.230Z,30.60
2019-04-01T19:58:20.831Z,31.20
2019-04-01T20:01:03.028Z,30.07
2019-04-01T20:03:44.672Z,35.37
2019-04-01T20:06:26.051Z,32.40
2019-04-01T20:09:08.275Z,34.83
2019-04-01T20:11:38.280Z,31.37
2019-04-01T20:17:41.564Z,31.10
2019-04-01T20:20:31.904Z,32.50
2019-04-01T20:23:21.052Z,31.90
2019-04-01T20:32:40.079Z,33.80
2019-04-01T20:35:29.148Z,34.90
2019-04-01T20:37:59.836Z,32.37
2019-04-01T20:40:49.302Z,33.80
2019-04-01T20:43:38.283Z,31.73
2019-04-01T20:46:48.546Z,35.00
2019-04-01T20:52:38.762Z,32.67
2019-04-01T20:55:20.694Z,33.47
2019-04-01T20:58:01.870Z,32.20
2019-04-01T21:00:44.018Z,33.63
2019-04-01T21:03:25.527Z,35.17
2019-04-01T21:06:07.302Z,36.03
2019-04-01T21:08:38.127Z,32.80
2019-04-01T21:11:08.219Z,33.33
2019-04-01T21:13:39.118Z,32.77
2019-04-01T21:16:28.569Z,33.80
2019-04-01T21:19:17.520Z,32.10
2019-04-01T21:22:07.212Z,33.67
2019-04-01T21:24:57.713Z,32.47
2019-04-01T21:27:46.717Z,35.17
2019-04-01T21:30:35.967Z,32.10
2019-04-01T21:36:38.635Z,35.83
2019-04-01T21:39:27.783Z,34.80
2019-04-01T21:42:16.962Z,32.57
2019-04-01T21:45:07.346Z,33.80
2019-04-01T21:47:37.150Z,34.20
2019-04-01T21:50:07.986Z,34.73
2019-04-01T21:52:50.089Z,39.70
2019-04-01T21:55:31.492Z,33.77
2019-04-01T21:58:13.679Z,31.57
2019-04-01T22:00:57.587Z,34.00
2019-04-01T22:03:39.623Z,40.67
2019-04-01T22:06:21.306Z,36.50
2019-04-01T22:09:05.469Z,35.33
2019-04-01T22:11:47.081Z,31.67
2019-04-01T22:14:16.879Z,33.97
2019-04-01T22:17:05.950Z,33.63
2019-04-01T22:19:54.964Z,32.40
2019-04-01T22:25:58.163Z,30.73
2019-04-01T22:29:07.809Z,29.97
2019-04-01T22:41:41.412Z,30.87
2019-04-01T22:44:48.406Z,31.57
2019-04-01T22:50:51.758Z,32.20
2019-04-01T22:53:33.972Z,32.23
2019-04-01T22:56:16.339Z,36.77
2019-04-01T22:58:58.276Z,32.67
2019-04-01T23:01:39.711Z,35.60
2019-04-01T23:04:21.235Z,32.93
2019-04-01T23:07:04.225Z,32.87
2019-04-01T23:09:46.406Z,32.20
2019-04-01T23:12:16.559Z,32.93
2019-04-01T23:14:46.866Z,31.70
2019-04-01T23:17:35.955Z,34.90
2019-04-01T23:20:38.169Z,33.40
2019-04-01T23:23:35.948Z,33.03
2019-04-01T23:26:25.312Z,33.73
2019-04-01T23:29:34.879Z,35.33
2019-04-01T23:32:23.943Z,33.70
2019-04-01T23:35:13.014Z,32.43
2019-04-01T23:41:15.604Z,32.07
2019-04-01T23:44:04.594Z,32.93
2019-04-01T23:46:53.503Z,32.77
2019-04-01T23:56:11.294Z,34.93
